sensor_id;sensor_type;location;lat;lon;timestamp;P1;durP1;ratioP1;P2;durP2;ratioP2
11447;SDS011;43755;49.736;8.734;2023-07-02T00:00:55;3.08;;;1.90;;
11447;SDS011;43755;49.736;8.734;2023-07-02T00:02:59;2.35;;;1.90;;
11447;SDS011;43755;49.736;8.734;2023-07-02T00:05:03;1.88;;;1.73;;
11447;SDS011;43755;49.736;8.734;2023-07-02T00:07:04;1.90;;;1.73;;
11447;SDS011;43755;49.736;8.734;2023-07-02T00:09:06;2.55;;;1.90;;
11447;SDS011;43755;49.736;8.734;2023-07-02T00:11:08;4.47;;;1.98;;
11447;SDS011;43755;49.736;8.734;2023-07-02T00:13:12;2.45;;;1.80;;
11447;SDS011;43755;49.736;8.734;2023-07-02T00:15:13;2.92;;;2.17;;
11447;SDS011;43755;49.736;8.734;2023-07-02T00:17:15;2.05;;;1.85;;
11447;SDS011;43755;49.736;8.734;2023-07-02T00:19:16;2.17;;;1.98;;
11447;SDS011;43755;49.736;8.734;2023-07-02T00:21:19;2.05;;;1.60;;
11447;SDS011;43755;49.736;8.734;2023-07-02T00:23:21;2.55;;;1.70;;
11447;SDS011;43755;49.736;8.734;2023-07-02T00:25:22;3.78;;;1.80;;
11447;SDS011;43755;49.736;8.734;2023-07-02T00:27:23;5.20;;;1.67;;
11447;SDS011;43755;49.736;8.734;2023-07-02T00:29:25;3.13;;;1.90;;
11447;SDS011;43755;49.736;8.734;2023-07-02T00:31:26;2.17;;;1.65;;
11447;SDS011;43755;49.736;8.734;2023-07-02T00:33:28;3.30;;;1.77;;
11447;SDS011;43755;49.736;8.734;2023-07-02T00:35:29;2.03;;;1.52;;
11447;SDS011;43755;49.736;8.734;2023-07-02T00:37:32;3.35;;;2.00;;
11447;SDS011;43755;49.736;8.734;2023-07-02T00:39:33;3.03;;;1.90;;
11447;SDS011;43755;49.736;8.734;2023-07-02T00:41:35;1.85;;;1.75;;
11447;SDS011;43755;49.736;8.734;2023-07-02T00:43:36;1.90;;;1.67;;
11447;SDS011;43755;49.736;8.734;2023-07-02T00:45:39;3.38;;;1.80;;
11447;SDS011;43755;49.736;8.734;2023-07-02T00:47:40;3.45;;;1.90;;
11447;SDS011;43755;49.736;8.734;2023-07-02T00:49:42;2.30;;;2.00;;
11447;SDS011;43755;49.736;8.734;2023-07-02T00:51:43;2.75;;;1.90;;
11447;SDS011;43755;49.736;8.734;2023-07-02T00:53:47;2.10;;;1.90;;
11447;SDS011;43755;49.736;8.734;2023-07-02T00:55:49;1.92;;;1.83;;
11447;SDS011;43755;49.736;8.734;2023-07-02T00:57:50;2.00;;;1.90;;
11447;SDS011;43755;49.736;8.734;2023-07-02T00:59:52;4.47;;;2.15;;
11447;SDS011;43755;49.736;8.734;2023-07-02T01:01:53;2.53;;;2.00;;
11447;SDS011;43755;49.736;8.734;2023-07-02T01:03:57;1.80;;;1.70;;
11447;SDS011;43755;49.736;8.734;2023-07-02T01:06:00;2.50;;;2.30;;
11447;SDS011;43755;49.736;8.734;2023-07-02T01:08:03;2.78;;;2.05;;
11447;SDS011;43755;49.736;8.734;2023-07-02T01:10:07;2.40;;;1.90;;
11447;SDS011;43755;49.736;8.734;2023-07-02T01:12:09;3.53;;;2.05;;
11447;SDS011;43755;49.736;8.734;2023-07-02T01:14:12;2.95;;;2.22;;
11447;SDS011;43755;49.736;8.734;2023-07-02T01:16:17;2.22;;;2.03;;
11447;SDS011;43755;49.736;8.734;2023-07-02T01:18:22;2.70;;;1.77;;
11447;SDS011;43755;49.736;8.734;2023-07-02T01:20:25;2.20;;;2.05;;
11447;SDS011;43755;49.736;8.734;2023-07-02T01:22:30;2.17;;;1.70;;
11447;SDS011;43755;49.736;8.734;2023-07-02T01:24:33;2.45;;;1.77;;
11447;SDS011;43755;49.736;8.734;2023-07-02T01:26:35;3.40;;;2.10;;
11447;SDS011;43755;49.736;8.734;2023-07-02T01:28:37;2.05;;;1.88;;
11447;SDS011;43755;49.736;8.734;2023-07-02T01:30:39;3.15;;;1.80;;
11447;SDS011;43755;49.736;8.734;2023-07-02T01:32:40;1.98;;;1.77;;
11447;SDS011;43755;49.736;8.734;2023-07-02T01:34:41;2.38;;;1.70;;
11447;SDS011;43755;49.736;8.734;2023-07-02T01:36:45;3.15;;;2.10;;
11447;SDS011;43755;49.736;8.734;2023-07-02T01:38:46;2.35;;;1.67;;
11447;SDS011;43755;49.736;8.734;2023-07-02T01:40:48;2.75;;;1.70;;
11447;SDS011;43755;49.736;8.734;2023-07-02T01:42:49;3.13;;;1.90;;
11447;SDS011;43755;49.736;8.734;2023-07-02T01:44:50;2.13;;;1.92;;
11447;SDS011;43755;49.736;8.734;2023-07-02T01:46:52;2.72;;;1.77;;
11447;SDS011;43755;49.736;8.734;2023-07-02T01:48:56;1.80;;;1.70;;
11447;SDS011;43755;49.736;8.734;2023-07-02T01:50:57;2.90;;;1.85;;
11447;SDS011;43755;49.736;8.734;2023-07-02T01:53:00;2.72;;;1.95;;
11447;SDS011;43755;49.736;8.734;2023-07-02T01:55:01;3.38;;;2.10;;
11447;SDS011;43755;49.736;8.734;2023-07-02T01:57:03;2.15;;;1.77;;
11447;SDS011;43755;49.736;8.734;2023-07-02T01:59:05;2.92;;;1.90;;
11447;SDS011;43755;49.736;8.734;2023-07-02T02:01:07;2.72;;;2.03;;
11447;SDS011;43755;49.736;8.734;2023-07-02T02:03:08;3.45;;;1.83;;
11447;SDS011;43755;49.736;8.734;2023-07-02T02:05:09;3.22;;;2.17;;
11447;SDS011;43755;49.736;8.734;2023-07-02T02:07:11;5.15;;;2.72;;
11447;SDS011;43755;49.736;8.734;2023-07-02T02:09:13;6.78;;;3.72;;
11447;SDS011;43755;49.736;8.734;2023-07-02T02:11:15;5.63;;;3.88;;
11447;SDS011;43755;49.736;8.734;2023-07-02T02:13:16;4.75;;;3.90;;
11447;SDS011;43755;49.736;8.734;2023-07-02T02:15:18;5.78;;;4.53;;
11447;SDS011;43755;49.736;8.734;2023-07-02T02:17:19;6.88;;;4.75;;
11447;SDS011;43755;49.736;8.734;2023-07-02T02:19:21;7.78;;;4.57;;
11447;SDS011;43755;49.736;8.734;2023-07-02T02:21:22;8.20;;;4.85;;
11447;SDS011;43755;49.736;8.734;2023-07-02T02:23:23;6.80;;;4.57;;
11447;SDS011;43755;49.736;8.734;2023-07-02T02:25:25;5.25;;;4.20;;
11447;SDS011;43755;49.736;8.734;2023-07-02T02:27:27;5.60;;;4.38;;
11447;SDS011;43755;49.736;8.734;2023-07-02T02:29:28;6.60;;;4.13;;
11447;SDS011;43755;49.736;8.734;2023-07-02T02:31:30;4.82;;;4.15;;
11447;SDS011;43755;49.736;8.734;2023-07-02T02:33:31;7.10;;;3.95;;
11447;SDS011;43755;49.736;8.734;2023-07-02T02:35:33;6.45;;;3.88;;
11447;SDS011;43755;49.736;8.734;2023-07-02T02:37:36;5.88;;;3.80;;
11447;SDS011;43755;49.736;8.734;2023-07-02T02:39:39;6.53;;;3.50;;
11447;SDS011;43755;49.736;8.734;2023-07-02T02:41:41;5.35;;;3.58;;
11447;SDS011;43755;49.736;8.734;2023-07-02T02:43:43;7.63;;;4.00;;
11447;SDS011;43755;49.736;8.734;2023-07-02T02:45:44;4.47;;;3.83;;
11447;SDS011;43755;49.736;8.734;2023-07-02T02:47:46;7.25;;;4.63;;
11447;SDS011;43755;49.736;8.734;2023-07-02T02:49:47;5.40;;;4.20;;
11447;SDS011;43755;49.736;8.734;2023-07-02T02:51:48;6.57;;;4.32;;
11447;SDS011;43755;49.736;8.734;2023-07-02T02:53:50;5.13;;;4.20;;
11447;SDS011;43755;49.736;8.734;2023-07-02T02:55:51;6.90;;;5.15;;
11447;SDS011;43755;49.736;8.734;2023-07-02T02:57:55;7.68;;;4.72;;
11447;SDS011;43755;49.736;8.734;2023-07-02T02:59:56;6.88;;;4.88;;
11447;SDS011;43755;49.736;8.734;2023-07-02T03:01:57;7.47;;;4.30;;
11447;SDS011;43755;49.736;8.734;2023-07-02T03:03:59;6.68;;;4.10;;
11447;SDS011;43755;49.736;8.734;2023-07-02T03:06:00;6.32;;;4.03;;
11447;SDS011;43755;49.736;8.734;2023-07-02T03:08:02;4.90;;;3.90;;
11447;SDS011;43755;49.736;8.734;2023-07-02T03:10:04;5.95;;;3.63;;
11447;SDS011;43755;49.736;8.734;2023-07-02T03:12:06;5.93;;;4.07;;
11447;SDS011;43755;49.736;8.734;2023-07-02T03:14:09;8.85;;;4.53;;
11447;SDS011;43755;49.736;8.734;2023-07-02T03:16:11;5.53;;;4.40;;
11447;SDS011;43755;49.736;8.734;2023-07-02T03:18:12;8.27;;;4.97;;
11447;SDS011;43755;49.736;8.734;2023-07-02T03:20:13;6.93;;;4.40;;
11447;SDS011;43755;49.736;8.734;2023-07-02T03:22:15;7.05;;;4.60;;
11447;SDS011;43755;49.736;8.734;2023-07-02T03:24:16;8.20;;;4.93;;
11447;SDS011;43755;49.736;8.734;2023-07-02T03:26:18;6.45;;;4.50;;
11447;SDS011;43755;49.736;8.734;2023-07-02T03:28:20;8.60;;;4.65;;
11447;SDS011;43755;49.736;8.734;2023-07-02T03:30:23;8.32;;;4.65;;
11447;SDS011;43755;49.736;8.734;2023-07-02T03:32:24;7.45;;;4.72;;
11447;SDS011;43755;49.736;8.734;2023-07-02T03:34:26;8.23;;;5.20;;
11447;SDS011;43755;49.736;8.734;2023-07-02T03:36:27;8.52;;;4.63;;
11447;SDS011;43755;49.736;8.734;2023-07-02T03:38:28;8.38;;;5.20;;
11447;SDS011;43755;49.736;8.734;2023-07-02T03:40:30;6.72;;;4.72;;
11447;SDS011;43755;49.736;8.734;2023-07-02T03:42:32;7.35;;;4.68;;
11447;SDS011;43755;49.736;8.734;2023-07-02T03:44:34;7.75;;;4.93;;
11447;SDS011;43755;49.736;8.734;2023-07-02T03:46:36;8.15;;;4.35;;
11447;SDS011;43755;49.736;8.734;2023-07-02T03:48:38;6.15;;;4.40;;
11447;SDS011;43755;49.736;8.734;2023-07-02T03:50:39;9.38;;;4.72;;
11447;SDS011;43755;49.736;8.734;2023-07-02T03:52:40;6.95;;;4.53;;
11447;SDS011;43755;49.736;8.734;2023-07-02T03:54:42;8.20;;;4.78;;
11447;SDS011;43755;49.736;8.734;2023-07-02T03:56:43;7.18;;;4.68;;
11447;SDS011;43755;49.736;8.734;2023-07-02T03:58:45;7.10;;;4.50;;
11447;SDS011;43755;49.736;8.734;2023-07-02T04:00:46;7.03;;;4.43;;
11447;SDS011;43755;49.736;8.734;2023-07-02T04:02:50;7.35;;;4.45;;
11447;SDS011;43755;49.736;8.734;2023-07-02T04:04:52;5.28;;;4.65;;
11447;SDS011;43755;49.736;8.734;2023-07-02T04:06:53;5.53;;;3.97;;
11447;SDS011;43755;49.736;8.734;2023-07-02T04:08:55;7.40;;;4.75;;
11447;SDS011;43755;49.736;8.734;2023-07-02T04:10:56;9.00;;;5.10;;
11447;SDS011;43755;49.736;8.734;2023-07-02T04:12:58;7.65;;;4.65;;
11447;SDS011;43755;49.736;8.734;2023-07-02T04:14:59;7.78;;;4.82;;
11447;SDS011;43755;49.736;8.734;2023-07-02T04:17:01;6.78;;;5.07;;
11447;SDS011;43755;49.736;8.734;2023-07-02T04:19:04;7.72;;;5.07;;
11447;SDS011;43755;49.736;8.734;2023-07-02T04:21:06;9.65;;;5.28;;
11447;SDS011;43755;49.736;8.734;2023-07-02T04:23:07;7.38;;;4.60;;
11447;SDS011;43755;49.736;8.734;2023-07-02T04:25:08;6.70;;;4.55;;
11447;SDS011;43755;49.736;8.734;2023-07-02T04:27:10;8.52;;;4.90;;
11447;SDS011;43755;49.736;8.734;2023-07-02T04:29:13;5.75;;;4.88;;
11447;SDS011;43755;49.736;8.734;2023-07-02T04:31:14;6.63;;;4.60;;
11447;SDS011;43755;49.736;8.734;2023-07-02T04:33:16;8.18;;;4.80;;
11447;SDS011;43755;49.736;8.734;2023-07-02T04:35:19;9.18;;;5.20;;
11447;SDS011;43755;49.736;8.734;2023-07-02T04:37:20;9.18;;;4.85;;
11447;SDS011;43755;49.736;8.734;2023-07-02T04:39:22;9.02;;;4.85;;
11447;SDS011;43755;49.736;8.734;2023-07-02T04:41:24;6.60;;;4.88;;
11447;SDS011;43755;49.736;8.734;2023-07-02T04:43:25;6.55;;;4.90;;
11447;SDS011;43755;49.736;8.734;2023-07-02T04:45:29;7.13;;;4.88;;
11447;SDS011;43755;49.736;8.734;2023-07-02T04:47:32;6.60;;;4.90;;
11447;SDS011;43755;49.736;8.734;2023-07-02T04:49:33;8.32;;;4.85;;
11447;SDS011;43755;49.736;8.734;2023-07-02T04:51:36;7.78;;;4.40;;
11447;SDS011;43755;49.736;8.734;2023-07-02T04:53:37;6.90;;;4.90;;
11447;SDS011;43755;49.736;8.734;2023-07-02T04:55:39;7.30;;;4.63;;
11447;SDS011;43755;49.736;8.734;2023-07-02T04:57:40;9.88;;;5.28;;
11447;SDS011;43755;49.736;8.734;2023-07-02T04:59:42;5.25;;;4.60;;
11447;SDS011;43755;49.736;8.734;2023-07-02T05:01:44;6.70;;;4.65;;
11447;SDS011;43755;49.736;8.734;2023-07-02T05:03:45;6.88;;;4.70;;
11447;SDS011;43755;49.736;8.734;2023-07-02T05:05:46;7.00;;;5.25;;
11447;SDS011;43755;49.736;8.734;2023-07-02T05:07:49;7.20;;;5.22;;
11447;SDS011;43755;49.736;8.734;2023-07-02T05:09:50;6.22;;;5.45;;
11447;SDS011;43755;49.736;8.734;2023-07-02T05:11:53;5.75;;;4.55;;
11447;SDS011;43755;49.736;8.734;2023-07-02T05:13:54;7.22;;;4.90;;
11447;SDS011;43755;49.736;8.734;2023-07-02T05:15:55;6.93;;;4.90;;
11447;SDS011;43755;49.736;8.734;2023-07-02T05:17:57;6.97;;;5.28;;
11447;SDS011;43755;49.736;8.734;2023-07-02T05:19:59;7.28;;;4.82;;
11447;SDS011;43755;49.736;8.734;2023-07-02T05:22:00;8.18;;;5.13;;
11447;SDS011;43755;49.736;8.734;2023-07-02T05:24:03;7.45;;;4.88;;
11447;SDS011;43755;49.736;8.734;2023-07-02T05:26:05;6.80;;;5.22;;
11447;SDS011;43755;49.736;8.734;2023-07-02T05:28:07;6.00;;;4.85;;
11447;SDS011;43755;49.736;8.734;2023-07-02T05:30:08;7.28;;;5.22;;
11447;SDS011;43755;49.736;8.734;2023-07-02T05:32:10;7.90;;;5.10;;
11447;SDS011;43755;49.736;8.734;2023-07-02T05:34:12;6.85;;;5.05;;
11447;SDS011;43755;49.736;8.734;2023-07-02T05:36:13;8.88;;;5.15;;
11447;SDS011;43755;49.736;8.734;2023-07-02T05:38:16;8.70;;;5.45;;
11447;SDS011;43755;49.736;8.734;2023-07-02T05:40:19;8.98;;;5.70;;
11447;SDS011;43755;49.736;8.734;2023-07-02T05:42:21;7.15;;;5.45;;
11447;SDS011;43755;49.736;8.734;2023-07-02T05:44:22;7.78;;;5.97;;
11447;SDS011;43755;49.736;8.734;2023-07-02T05:46:24;8.93;;;5.85;;
11447;SDS011;43755;49.736;8.734;2023-07-02T05:48:25;8.70;;;5.93;;
11447;SDS011;43755;49.736;8.734;2023-07-02T05:50:27;8.18;;;6.10;;
11447;SDS011;43755;49.736;8.734;2023-07-02T05:52:28;13.10;;;5.65;;
11447;SDS011;43755;49.736;8.734;2023-07-02T05:54:30;10.55;;;6.50;;
11447;SDS011;43755;49.736;8.734;2023-07-02T05:56:32;10.05;;;6.75;;
11447;SDS011;43755;49.736;8.734;2023-07-02T05:58:34;10.43;;;5.70;;
11447;SDS011;43755;49.736;8.734;2023-07-02T06:00:35;7.60;;;5.82;;
11447;SDS011;43755;49.736;8.734;2023-07-02T06:02:37;10.73;;;5.57;;
11447;SDS011;43755;49.736;8.734;2023-07-02T06:04:38;10.38;;;6.18;;
11447;SDS011;43755;49.736;8.734;2023-07-02T06:06:39;9.02;;;6.30;;
11447;SDS011;43755;49.736;8.734;2023-07-02T06:08:41;9.15;;;6.30;;
11447;SDS011;43755;49.736;8.734;2023-07-02T06:10:42;9.10;;;6.63;;
11447;SDS011;43755;49.736;8.734;2023-07-02T06:12:45;9.18;;;6.20;;
11447;SDS011;43755;49.736;8.734;2023-07-02T06:14:47;11.55;;;7.10;;
11447;SDS011;43755;49.736;8.734;2023-07-02T06:16:48;9.70;;;6.70;;
11447;SDS011;43755;49.736;8.734;2023-07-02T06:18:50;8.25;;;6.35;;
11447;SDS011;43755;49.736;8.734;2023-07-02T06:20:51;11.00;;;6.80;;
11447;SDS011;43755;49.736;8.734;2023-07-02T06:22:52;11.90;;;7.20;;
11447;SDS011;43755;49.736;8.734;2023-07-02T06:24:54;11.18;;;7.50;;
11447;SDS011;43755;49.736;8.734;2023-07-02T06:26:55;9.80;;;7.47;;
11447;SDS011;43755;49.736;8.734;2023-07-02T06:28:58;10.02;;;7.20;;
11447;SDS011;43755;49.736;8.734;2023-07-02T06:30:59;12.13;;;7.03;;
11447;SDS011;43755;49.736;8.734;2023-07-02T06:33:01;12.25;;;7.03;;
11447;SDS011;43755;49.736;8.734;2023-07-02T06:35:02;10.85;;;7.10;;
11447;SDS011;43755;49.736;8.734;2023-07-02T06:37:06;11.30;;;7.30;;
11447;SDS011;43755;49.736;8.734;2023-07-02T06:39:07;10.30;;;6.93;;
11447;SDS011;43755;49.736;8.734;2023-07-02T06:41:09;9.82;;;6.93;;
11447;SDS011;43755;49.736;8.734;2023-07-02T06:43:10;9.13;;;7.15;;
11447;SDS011;43755;49.736;8.734;2023-07-02T06:45:13;8.63;;;7.13;;
11447;SDS011;43755;49.736;8.734;2023-07-02T06:47:14;11.10;;;7.30;;
11447;SDS011;43755;49.736;8.734;2023-07-02T06:49:16;11.07;;;6.88;;
11447;SDS011;43755;49.736;8.734;2023-07-02T06:51:17;8.85;;;6.70;;
11447;SDS011;43755;49.736;8.734;2023-07-02T06:53:19;10.38;;;7.22;;
11447;SDS011;43755;49.736;8.734;2023-07-02T06:55:20;12.55;;;7.43;;
11447;SDS011;43755;49.736;8.734;2023-07-02T06:57:21;11.88;;;7.97;;
11447;SDS011;43755;49.736;8.734;2023-07-02T06:59:23;11.30;;;7.40;;
11447;SDS011;43755;49.736;8.734;2023-07-02T07:01:26;12.38;;;7.78;;
11447;SDS011;43755;49.736;8.734;2023-07-02T07:03:28;8.67;;;7.20;;
11447;SDS011;43755;49.736;8.734;2023-07-02T07:05:29;11.57;;;7.22;;
11447;SDS011;43755;49.736;8.734;2023-07-02T07:07:31;9.32;;;7.93;;
11447;SDS011;43755;49.736;8.734;2023-07-02T07:09:33;10.77;;;8.67;;
11447;SDS011;43755;49.736;8.734;2023-07-02T07:11:34;11.35;;;8.60;;
11447;SDS011;43755;49.736;8.734;2023-07-02T07:13:35;12.05;;;8.50;;
11447;SDS011;43755;49.736;8.734;2023-07-02T07:15:37;12.73;;;8.30;;
11447;SDS011;43755;49.736;8.734;2023-07-02T07:17:40;12.35;;;8.48;;
11447;SDS011;43755;49.736;8.734;2023-07-02T07:19:41;11.27;;;8.57;;
11447;SDS011;43755;49.736;8.734;2023-07-02T07:21:43;14.75;;;8.57;;
11447;SDS011;43755;49.736;8.734;2023-07-02T07:23:44;12.52;;;8.50;;
11447;SDS011;43755;49.736;8.734;2023-07-02T07:25:46;11.40;;;8.65;;
11447;SDS011;43755;49.736;8.734;2023-07-02T07:27:47;12.35;;;8.68;;
11447;SDS011;43755;49.736;8.734;2023-07-02T07:29:49;12.07;;;8.65;;
11447;SDS011;43755;49.736;8.734;2023-07-02T07:31:50;12.15;;;9.20;;
11447;SDS011;43755;49.736;8.734;2023-07-02T07:33:53;12.10;;;9.00;;
11447;SDS011;43755;49.736;8.734;2023-07-02T07:35:54;15.15;;;9.77;;
11447;SDS011;43755;49.736;8.734;2023-07-02T07:37:55;12.75;;;9.07;;
11447;SDS011;43755;49.736;8.734;2023-07-02T07:39:57;11.57;;;8.00;;
11447;SDS011;43755;49.736;8.734;2023-07-02T07:41:58;11.18;;;9.07;;
11447;SDS011;43755;49.736;8.734;2023-07-02T07:44:00;12.98;;;8.90;;
11447;SDS011;43755;49.736;8.734;2023-07-02T07:46:01;15.30;;;9.57;;
11447;SDS011;43755;49.736;8.734;2023-07-02T07:48:03;14.75;;;8.63;;
11447;SDS011;43755;49.736;8.734;2023-07-02T07:50:07;13.53;;;8.90;;
11447;SDS011;43755;49.736;8.734;2023-07-02T07:52:10;10.80;;;8.60;;
11447;SDS011;43755;49.736;8.734;2023-07-02T07:54:12;9.32;;;7.95;;
11447;SDS011;43755;49.736;8.734;2023-07-02T07:56:13;12.40;;;7.87;;
11447;SDS011;43755;49.736;8.734;2023-07-02T07:58:15;10.93;;;8.13;;
11447;SDS011;43755;49.736;8.734;2023-07-02T08:00:17;10.43;;;8.27;;
11447;SDS011;43755;49.736;8.734;2023-07-02T08:02:18;10.80;;;8.00;;
11447;SDS011;43755;49.736;8.734;2023-07-02T08:04:22;10.73;;;7.40;;
11447;SDS011;43755;49.736;8.734;2023-07-02T08:06:25;11.70;;;8.17;;
11447;SDS011;43755;49.736;8.734;2023-07-02T08:08:27;12.07;;;7.87;;
11447;SDS011;43755;49.736;8.734;2023-07-02T08:10:28;10.00;;;8.20;;
11447;SDS011;43755;49.736;8.734;2023-07-02T08:12:30;14.43;;;8.80;;
11447;SDS011;43755;49.736;8.734;2023-07-02T08:14:31;10.33;;;7.97;;
11447;SDS011;43755;49.736;8.734;2023-07-02T08:16:32;11.97;;;8.03;;
11447;SDS011;43755;49.736;8.734;2023-07-02T08:18:34;10.77;;;8.43;;
11447;SDS011;43755;49.736;8.734;2023-07-02T08:20:35;10.27;;;8.10;;
11447;SDS011;43755;49.736;8.734;2023-07-02T08:22:38;9.93;;;7.53;;
11447;SDS011;43755;49.736;8.734;2023-07-02T08:24:40;10.73;;;7.57;;
11447;SDS011;43755;49.736;8.734;2023-07-02T08:26:41;13.70;;;8.13;;
11447;SDS011;43755;49.736;8.734;2023-07-02T08:28:44;12.60;;;7.70;;
11447;SDS011;43755;49.736;8.734;2023-07-02T08:30:46;8.17;;;7.37;;
11447;SDS011;43755;49.736;8.734;2023-07-02T08:32:48;12.00;;;8.30;;
11447;SDS011;43755;49.736;8.734;2023-07-02T08:34:49;9.77;;;7.80;;
11447;SDS011;43755;49.736;8.734;2023-07-02T08:36:51;10.23;;;7.70;;
11447;SDS011;43755;49.736;8.734;2023-07-02T08:38:53;9.67;;;7.17;;
11447;SDS011;43755;49.736;8.734;2023-07-02T08:40:55;11.60;;;7.67;;
11447;SDS011;43755;49.736;8.734;2023-07-02T08:42:56;12.10;;;8.00;;
11447;SDS011;43755;49.736;8.734;2023-07-02T08:44:59;10.10;;;7.60;;
11447;SDS011;43755;49.736;8.734;2023-07-02T08:47:01;13.00;;;7.93;;
11447;SDS011;43755;49.736;8.734;2023-07-02T08:49:02;13.40;;;8.03;;
11447;SDS011;43755;49.736;8.734;2023-07-02T08:51:04;10.57;;;7.90;;
11447;SDS011;43755;49.736;8.734;2023-07-02T08:53:05;12.07;;;8.60;;
11447;SDS011;43755;49.736;8.734;2023-07-02T08:55:08;10.40;;;8.30;;
11447;SDS011;43755;49.736;8.734;2023-07-02T08:57:10;10.17;;;8.37;;
11447;SDS011;43755;49.736;8.734;2023-07-02T08:59:11;10.73;;;8.13;;
11447;SDS011;43755;49.736;8.734;2023-07-02T09:01:13;10.17;;;8.03;;
11447;SDS011;43755;49.736;8.734;2023-07-02T09:03:15;11.83;;;8.53;;
11447;SDS011;43755;49.736;8.734;2023-07-02T09:05:17;12.30;;;8.40;;
11447;SDS011;43755;49.736;8.734;2023-07-02T09:07:18;11.77;;;8.63;;
11447;SDS011;43755;49.736;8.734;2023-07-02T09:09:19;11.27;;;8.83;;
11447;SDS011;43755;49.736;8.734;2023-07-02T09:11:22;13.23;;;9.17;;
11447;SDS011;43755;49.736;8.734;2023-07-02T09:13:24;12.73;;;8.60;;
11447;SDS011;43755;49.736;8.734;2023-07-02T09:15:25;13.03;;;9.47;;
11447;SDS011;43755;49.736;8.734;2023-07-02T09:17:27;13.63;;;8.90;;
11447;SDS011;43755;49.736;8.734;2023-07-02T09:19:30;10.93;;;8.43;;
11447;SDS011;43755;49.736;8.734;2023-07-02T09:21:38;10.40;;;7.97;;
11447;SDS011;43755;49.736;8.734;2023-07-02T09:23:41;14.63;;;8.57;;
11447;SDS011;43755;49.736;8.734;2023-07-02T09:25:42;11.87;;;8.47;;
11447;SDS011;43755;49.736;8.734;2023-07-02T09:27:46;12.73;;;9.40;;
11447;SDS011;43755;49.736;8.734;2023-07-02T09:29:51;13.03;;;9.47;;
11447;SDS011;43755;49.736;8.734;2023-07-02T09:31:53;14.57;;;9.80;;
11447;SDS011;43755;49.736;8.734;2023-07-02T09:34:00;15.73;;;9.70;;
11447;SDS011;43755;49.736;8.734;2023-07-02T09:36:02;13.50;;;9.10;;
11447;SDS011;43755;49.736;8.734;2023-07-02T09:38:05;14.80;;;9.80;;
11447;SDS011;43755;49.736;8.734;2023-07-02T09:40:07;12.70;;;9.50;;
11447;SDS011;43755;49.736;8.734;2023-07-02T09:42:09;14.93;;;9.80;;
11447;SDS011;43755;49.736;8.734;2023-07-02T09:44:13;12.17;;;8.90;;
11447;SDS011;43755;49.736;8.734;2023-07-02T09:46:15;16.27;;;9.13;;
11447;SDS011;43755;49.736;8.734;2023-07-02T09:48:17;10.67;;;9.07;;
11447;SDS011;43755;49.736;8.734;2023-07-02T09:50:20;13.87;;;9.40;;
11447;SDS011;43755;49.736;8.734;2023-07-02T09:52:24;12.97;;;7.97;;
11447;SDS011;43755;49.736;8.734;2023-07-02T09:54:27;12.57;;;8.90;;
11447;SDS011;43755;49.736;8.734;2023-07-02T09:56:29;13.43;;;8.70;;
11447;SDS011;43755;49.736;8.734;2023-07-02T09:58:30;11.27;;;8.70;;
11447;SDS011;43755;49.736;8.734;2023-07-02T10:00:33;10.67;;;8.77;;
11447;SDS011;43755;49.736;8.734;2023-07-02T10:02:35;12.93;;;9.93;;
11447;SDS011;43755;49.736;8.734;2023-07-02T10:04:42;14.50;;;9.33;;
11447;SDS011;43755;49.736;8.734;2023-07-02T10:06:45;15.40;;;9.77;;
11447;SDS011;43755;49.736;8.734;2023-07-02T10:08:53;11.10;;;9.03;;
11447;SDS011;43755;49.736;8.734;2023-07-02T10:11:05;12.03;;;9.00;;
11447;SDS011;43755;49.736;8.734;2023-07-02T10:13:07;12.97;;;9.07;;
11447;SDS011;43755;49.736;8.734;2023-07-02T10:15:09;12.23;;;9.37;;
11447;SDS011;43755;49.736;8.734;2023-07-02T10:17:22;13.60;;;10.20;;
11447;SDS011;43755;49.736;8.734;2023-07-02T10:19:23;13.87;;;9.37;;
11447;SDS011;43755;49.736;8.734;2023-07-02T10:21:25;12.77;;;9.97;;
11447;SDS011;43755;49.736;8.734;2023-07-02T10:23:32;13.20;;;10.00;;
11447;SDS011;43755;49.736;8.734;2023-07-02T10:25:36;10.70;;;9.60;;
11447;SDS011;43755;49.736;8.734;2023-07-02T10:27:38;11.20;;;9.13;;
11447;SDS011;43755;49.736;8.734;2023-07-02T10:29:48;13.37;;;10.07;;
11447;SDS011;43755;49.736;8.734;2023-07-02T10:31:50;13.43;;;10.13;;
11447;SDS011;43755;49.736;8.734;2023-07-02T10:33:54;14.37;;;11.10;;
11447;SDS011;43755;49.736;8.734;2023-07-02T10:35:55;14.23;;;10.37;;
11447;SDS011;43755;49.736;8.734;2023-07-02T10:37:57;14.77;;;10.10;;
11447;SDS011;43755;49.736;8.734;2023-07-02T10:39:58;11.90;;;9.53;;
11447;SDS011;43755;49.736;8.734;2023-07-02T10:42:03;13.20;;;9.87;;
11447;SDS011;43755;49.736;8.734;2023-07-02T10:44:06;13.87;;;9.30;;
11447;SDS011;43755;49.736;8.734;2023-07-02T10:46:08;13.17;;;9.50;;
11447;SDS011;43755;49.736;8.734;2023-07-02T10:48:09;12.77;;;9.63;;
11447;SDS011;43755;49.736;8.734;2023-07-02T10:50:16;13.33;;;10.00;;
11447;SDS011;43755;49.736;8.734;2023-07-02T10:52:18;13.57;;;9.73;;
11447;SDS011;43755;49.736;8.734;2023-07-02T10:54:20;12.33;;;9.90;;
11447;SDS011;43755;49.736;8.734;2023-07-02T10:56:21;12.70;;;10.17;;
11447;SDS011;43755;49.736;8.734;2023-07-02T10:58:23;11.63;;;9.40;;
11447;SDS011;43755;49.736;8.734;2023-07-02T11:00:25;14.03;;;9.23;;
11447;SDS011;43755;49.736;8.734;2023-07-02T11:02:33;13.20;;;9.63;;
11447;SDS011;43755;49.736;8.734;2023-07-02T11:04:35;12.90;;;9.63;;
11447;SDS011;43755;49.736;8.734;2023-07-02T11:06:39;14.50;;;10.40;;
11447;SDS011;43755;49.736;8.734;2023-07-02T11:08:40;13.40;;;10.67;;
11447;SDS011;43755;49.736;8.734;2023-07-02T11:10:42;26.80;;;11.80;;
11447;SDS011;43755;49.736;8.734;2023-07-02T11:12:43;15.87;;;10.80;;
11447;SDS011;43755;49.736;8.734;2023-07-02T11:14:45;16.30;;;10.83;;
11447;SDS011;43755;49.736;8.734;2023-07-02T11:16:46;16.40;;;11.30;;
11447;SDS011;43755;49.736;8.734;2023-07-02T11:19:06;13.50;;;10.67;;
11447;SDS011;43755;49.736;8.734;2023-07-02T11:21:09;14.10;;;10.23;;
11447;SDS011;43755;49.736;8.734;2023-07-02T11:23:18;14.57;;;10.70;;
11447;SDS011;43755;49.736;8.734;2023-07-02T11:25:22;13.67;;;9.97;;
11447;SDS011;43755;49.736;8.734;2023-07-02T11:27:23;15.17;;;10.90;;
11447;SDS011;43755;49.736;8.734;2023-07-02T11:29:24;16.53;;;11.10;;
11447;SDS011;43755;49.736;8.734;2023-07-02T11:31:26;15.50;;;11.33;;
11447;SDS011;43755;49.736;8.734;2023-07-02T11:33:34;12.93;;;10.77;;
11447;SDS011;43755;49.736;8.734;2023-07-02T11:35:36;20.43;;;11.87;;
11447;SDS011;43755;49.736;8.734;2023-07-02T11:37:38;16.50;;;11.47;;
11447;SDS011;43755;49.736;8.734;2023-07-02T11:39:42;15.30;;;11.10;;
11447;SDS011;43755;49.736;8.734;2023-07-02T11:41:44;17.40;;;11.20;;
11447;SDS011;43755;49.736;8.734;2023-07-02T11:43:47;17.00;;;11.13;;
11447;SDS011;43755;49.736;8.734;2023-07-02T11:45:48;18.07;;;12.63;;
11447;SDS011;43755;49.736;8.734;2023-07-02T11:47:49;19.70;;;11.60;;
11447;SDS011;43755;49.736;8.734;2023-07-02T11:49:51;14.13;;;11.43;;
11447;SDS011;43755;49.736;8.734;2023-07-02T11:51:52;18.43;;;11.50;;
11447;SDS011;43755;49.736;8.734;2023-07-02T11:53:54;14.73;;;11.40;;
11447;SDS011;43755;49.736;8.734;2023-07-02T11:55:57;15.50;;;11.63;;
11447;SDS011;43755;49.736;8.734;2023-07-02T11:57:59;17.13;;;11.73;;
11447;SDS011;43755;49.736;8.734;2023-07-02T12:00:00;15.30;;;11.10;;
11447;SDS011;43755;49.736;8.734;2023-07-02T12:02:02;15.53;;;11.57;;
11447;SDS011;43755;49.736;8.734;2023-07-02T12:04:03;14.67;;;12.43;;
11447;SDS011;43755;49.736;8.734;2023-07-02T12:06:07;16.07;;;12.17;;
11447;SDS011;43755;49.736;8.734;2023-07-02T12:08:08;14.57;;;12.00;;
11447;SDS011;43755;49.736;8.734;2023-07-02T12:10:10;17.70;;;11.53;;